UTC

Schedule Details

Flight N° IV1102
Departure ICAO LIMJ (Genova / Sestri Cristoforo Colombo Airport)
Arrival ICAO LIBD (Bari / Palese International Airport)
Distance 400.91 nm
Schedule Aircraft Cessna 182
Flight Type Passenger
Route (AIRAC 2007)
LIMJ SID GEN DCT OLKIS DCT KUGIX DCT KATAR DCT NAVAG DCT VIE T415 EKMUR STAR LIBD
Departure METAR
LIMJ 140050Z 04008KT CAVOK 23/13 Q1015
Departure TAF
TAF Not Found
Arrival METAR
LIBD 140050Z 26006KT CAVOK 18/10 Q1013
Arrival TAF
TAF Not Found

Flight Map